Time;durP1;ratioP1;P1;durP2;ratioP2;P2;SDS_P1;SDS_P2;PMS_P1;PMS_P2;Temp;Humidity;BMP_temperature;BMP_pressure;BME280_temperature;BME280_humidity;BME280_pressure;Samples;Min_cycle;Max_cycle;Signal;HPM_P1;HPM_P2
2023/07/28 00:00:32;;;;;;;5.20;4.70;;;17.60;99.90;;;17.23;100.00;99703.41;5035985;28;20234;-73
2023/07/28 00:03:05;;;;;;;6.00;4.30;;;17.60;99.90;;;17.21;100.00;99703.66;5035974;28;20820;-73
2023/07/28 00:05:41;;;;;;;6.07;4.50;;;17.60;99.90;;;17.21;100.00;99703.66;5036101;28;20230;-72
2023/07/28 00:08:14;;;;;;;6.87;4.23;;;17.60;99.90;;;17.21;100.00;99705.53;5035794;28;20690;-72
2023/07/28 00:10:48;;;;;;;5.27;4.73;;;17.60;99.90;;;17.21;100.00;99710.94;5036074;28;20274;-72
2023/07/28 00:13:21;;;;;;;4.80;4.37;;;17.60;99.90;;;17.21;100.00;99702.84;5036212;28;20305;-72
2023/07/28 00:15:54;;;;;;;5.53;4.23;;;17.70;99.90;;;17.21;100.00;99710.94;5035565;28;20716;-72
2023/07/28 00:18:28;;;;;;;4.70;4.00;;;17.60;99.90;;;17.20;100.00;99710.13;5036171;28;20191;-72
2023/07/28 00:21:01;;;;;;;4.50;4.10;;;17.60;99.90;;;17.19;100.00;99713.88;5035598;28;20230;-72
2023/07/28 00:23:35;;;;;;;4.67;4.13;;;17.60;99.90;;;17.20;100.00;99709.28;5035795;28;20282;-72
2023/07/28 00:26:08;;;;;;;4.77;4.27;;;17.60;99.90;;;17.19;100.00;99705.75;5035757;28;20326;-72
2023/07/28 00:28:42;;;;;;;4.27;3.80;;;17.60;99.90;;;17.18;100.00;99706.84;5035739;28;20285;-72
2023/07/28 00:31:15;;;;;;;4.73;4.23;;;17.60;99.90;;;17.19;100.00;99707.66;5035651;28;20199;-72
2023/07/28 00:33:48;;;;;;;4.10;3.80;;;17.60;99.90;;;17.20;100.00;99709.28;5035306;28;20231;-72
2023/07/28 00:36:22;;;;;;;4.13;3.67;;;17.60;99.90;;;17.20;100.00;99709.28;5035050;28;20728;-72
2023/07/28 00:38:55;;;;;;;4.37;3.97;;;17.60;99.90;;;17.21;100.00;99719.06;5035591;28;20203;-72
2023/07/28 00:41:28;;;;;;;5.40;3.77;;;17.60;99.90;;;17.20;100.00;99712.81;5035485;28;20282;-72
2023/07/28 00:44:02;;;;;;;4.27;3.87;;;17.60;99.90;;;17.19;100.00;99713.06;5035489;28;20277;-72
2023/07/28 00:46:35;;;;;;;4.20;3.80;;;17.60;99.90;;;17.20;100.00;99718.22;5035348;28;20313;-72
2023/07/28 00:49:09;;;;;;;4.07;3.30;;;17.60;99.90;;;17.21;100.00;99710.94;5035386;28;20611;-72
2023/07/28 00:51:43;;;;;;;6.43;3.60;;;17.60;99.90;;;17.21;100.00;99710.94;5035392;28;20191;-72
2023/07/28 00:54:18;;;;;;;5.23;3.93;;;17.60;99.90;;;17.22;100.00;99718.03;5035227;28;20225;-72
2023/07/28 00:56:52;;;;;;;4.30;3.90;;;17.60;99.90;;;17.21;100.00;99708.25;5034957;28;20735;-72
2023/07/28 00:59:25;;;;;;;3.90;3.60;;;17.60;99.90;;;17.21;100.00;99716.34;5035188;28;20233;-72
2023/07/28 01:01:58;;;;;;;4.40;4.00;;;17.60;99.90;;;17.22;100.00;99718.84;5034829;28;20732;-72
2023/07/28 01:04:32;;;;;;;5.00;4.50;;;17.60;99.90;;;17.20;100.00;99706.59;5035027;28;20187;-72
2023/07/28 01:07:16;;;;;;;5.33;4.30;;;17.60;99.90;;;17.20;100.00;99707.41;5034724;28;20646;-72
2023/07/28 01:10:02;;;;;;;4.20;3.80;;;17.60;99.90;;;17.18;100.00;99706.00;5034917;28;20740;-72
2023/07/28 01:12:36;;;;;;;5.23;4.07;;;17.60;99.90;;;17.17;100.00;99701.63;5034847;28;20298;-72
2023/07/28 01:15:14;;;;;;;5.07;4.57;;;17.60;99.90;;;17.16;100.00;99700.81;5034490;28;20258;-72
2023/07/28 01:17:48;;;;;;;5.03;4.23;;;17.60;99.90;;;17.17;100.00;99704.34;5034492;28;20712;-72
2023/07/28 01:20:29;;;;;;;4.57;4.20;;;17.60;99.90;;;17.17;100.00;99704.34;5034772;28;20248;-72
2023/07/28 01:23:19;;;;;;;5.23;4.30;;;17.60;99.90;;;17.19;100.00;99704.97;5034390;28;20245;-72
2023/07/28 01:26:03;;;;;;;4.23;3.77;;;17.60;99.90;;;17.16;100.00;99711.63;5034256;28;20639;-73
2023/07/28 01:28:41;;;;;;;5.60;4.40;;;17.60;99.90;;;17.15;100.00;99706.47;5034590;28;20214;-73
2023/07/28 01:31:14;;;;;;;4.83;4.13;;;17.60;99.90;;;17.15;100.00;99706.47;5034272;28;20637;-73
2023/07/28 01:33:47;;;;;;;4.73;4.07;;;17.60;99.90;;;17.14;100.00;99704.81;5033967;28;20604;-72
2023/07/28 01:36:21;;;;;;;8.57;4.27;;;17.50;99.90;;;17.13;100.00;99705.84;5034399;28;20318;-72
2023/07/28 01:38:54;;;;;;;5.77;4.53;;;17.50;99.90;;;17.10;100.00;99706.31;5034436;28;20222;-72
2023/07/28 01:41:28;;;;;;;4.77;4.37;;;17.50;99.90;;;17.08;100.00;99705.72;5034376;28;20269;-72
2023/07/28 01:44:02;;;;;;;4.67;4.17;;;17.50;99.90;;;17.08;100.00;99708.41;5034014;28;20641;-72
2023/07/28 01:46:35;;;;;;;4.57;4.07;;;17.50;99.90;;;17.09;100.00;99704.63;5034236;28;20234;-72
2023/07/28 01:49:09;;;;;;;4.73;4.03;;;17.50;99.90;;;17.08;100.00;99703.00;5033633;28;20195;-72
2023/07/28 01:51:45;;;;;;;4.50;3.80;;;17.50;99.90;;;17.09;100.00;99693.81;5034048;28;20197;-72
2023/07/28 01:54:19;;;;;;;4.20;3.50;;;17.50;99.90;;;17.10;100.00;99698.19;5033980;28;20306;-72
2023/07/28 01:56:52;;;;;;;4.57;3.13;;;17.50;99.90;;;17.09;100.00;99700.06;5034132;28;20222;-72
2023/07/28 01:59:25;;;;;;;3.60;3.30;;;17.50;99.90;;;17.11;100.00;99697.16;5034063;28;20203;-72
2023/07/28 02:01:59;;;;;;;4.13;3.37;;;17.50;99.90;;;17.10;100.00;99698.19;5034012;28;20191;-72
2023/07/28 02:04:32;;;;;;;4.40;3.37;;;17.50;99.90;;;17.09;100.00;99708.19;5033616;28;20656;-72
2023/07/28 02:07:06;;;;;;;3.73;3.20;;;17.50;99.90;;;17.10;100.00;99706.31;5033944;28;20552;-72
2023/07/28 02:09:39;;;;;;;6.40;3.30;;;17.50;99.90;;;17.07;100.00;99709.47;5033887;28;20233;-72
2023/07/28 02:12:13;;;;;;;3.73;3.43;;;17.50;99.90;;;17.06;100.00;99707.81;5033886;28;20241;-72
2023/07/28 02:14:46;;;;;;;4.93;3.60;;;17.40;99.90;;;17.05;100.00;99712.41;5033675;28;20237;-72
2023/07/28 02:17:19;;;;;;;3.87;3.50;;;17.40;99.90;;;17.05;100.00;99707.00;5033767;28;20187;-72
2023/07/28 02:19:52;;;;;;;3.83;3.40;;;17.40;99.90;;;17.07;100.00;99715.69;5033684;28;20657;-72
2023/07/28 02:22:26;;;;;;;3.87;3.23;;;17.50;99.90;;;17.05;100.00;99708.88;5033718;28;20282;-72
2023/07/28 02:25:01;;;;;;;3.60;3.27;;;17.50;99.90;;;17.08;100.00;99708.41;5033924;28;20276;-72
2023/07/28 02:27:35;;;;;;;3.57;3.27;;;17.50;99.90;;;17.09;100.00;99707.34;5033624;28;20191;-72
2023/07/28 02:30:10;;;;;;;4.33;3.30;;;17.50;99.90;;;17.10;100.00;99717.94;5033631;28;20224;-72
2023/07/28 02:32:44;;;;;;;3.73;3.17;;;17.50;99.90;;;17.08;100.00;99708.41;5033488;28;20256;-72
2023/07/28 02:35:17;;;;;;;5.03;3.10;;;17.50;99.90;;;17.10;100.00;99714.41;5033455;28;20235;-72
2023/07/28 02:37:53;;;;;;;4.97;2.80;;;17.50;99.90;;;17.10;100.00;99714.41;5033551;28;20194;-72
2023/07/28 02:40:27;;;;;;;5.10;3.30;;;17.50;99.90;;;17.11;100.00;99718.78;5034044;28;20195;-72
2023/07/28 02:43:00;;;;;;;3.97;3.23;;;17.50;99.90;;;17.12;100.00;99717.75;5033199;28;20286;-72
2023/07/28 02:45:33;;;;;;;4.50;3.40;;;17.50;99.90;;;17.10;100.00;99723.34;5033387;28;20638;-72
2023/07/28 02:48:06;;;;;;;4.10;3.70;;;17.50;99.90;;;17.11;100.00;99721.47;5033092;28;20723;-72
2023/07/28 02:50:40;;;;;;;3.27;3.07;;;17.50;99.90;;;17.10;100.00;99720.66;5033060;28;20558;-72
2023/07/28 02:53:13;;;;;;;4.17;3.53;;;17.50;99.90;;;17.11;100.00;99724.19;5033308;28;20261;-72
2023/07/28 02:55:48;;;;;;;5.17;3.37;;;17.50;99.90;;;17.12;100.00;99723.16;5033311;28;20226;-72
2023/07/28 02:58:22;;;;;;;5.27;3.10;;;17.50;99.90;;;17.12;100.00;99723.16;5033326;28;20274;-72
2023/07/28 03:00:56;;;;;;;3.07;2.80;;;17.50;99.90;;;17.13;100.00;99735.59;5036096;28;20191;-72
2023/07/28 03:03:30;;;;;;;3.27;2.97;;;17.50;99.90;;;17.13;100.00;99736.44;5037363;28;20269;-72
2023/07/28 03:06:04;;;;;;;3.20;2.90;;;17.50;99.90;;;17.14;100.00;99739.97;5037273;28;20284;-72
2023/07/28 03:08:38;;;;;;;3.60;3.30;;;17.50;99.90;;;17.16;100.00;99738.66;5037269;28;20222;-72
2023/07/28 03:11:11;;;;;;;3.33;3.00;;;17.50;99.90;;;17.16;100.00;99735.13;5037226;28;20195;-72
2023/07/28 03:13:45;;;;;;;3.83;3.17;;;17.50;99.90;;;17.15;100.00;99738.91;5037111;28;20642;-72
2023/07/28 03:16:18;;;;;;;3.70;3.23;;;17.50;99.90;;;17.15;100.00;99741.63;5037066;28;20227;-72
2023/07/28 03:18:52;;;;;;;3.13;2.83;;;17.50;99.90;;;17.15;100.00;99738.91;5037070;28;20196;-72
2023/07/28 03:21:25;;;;;;;3.47;3.00;;;17.50;99.90;;;17.14;100.00;99734.56;5037060;28;20219;-72
2023/07/28 03:23:58;;;;;;;4.87;2.83;;;17.50;99.90;;;17.13;100.00;99731.00;5036995;28;20308;-72
2023/07/28 03:26:32;;;;;;;3.07;2.83;;;17.50;99.90;;;17.15;100.00;99736.22;5036567;28;20674;-72
2023/07/28 03:29:06;;;;;;;3.13;2.90;;;17.50;99.90;;;17.15;100.00;99738.91;5036589;28;20661;-72
2023/07/28 03:31:39;;;;;;;4.57;2.70;;;17.50;99.90;;;17.14;100.00;99738.09;5036855;28;20193;-72
2023/07/28 03:34:12;;;;;;;3.50;3.20;;;17.50;99.90;;;17.14;100.00;99748.06;5036486;28;20226;-73
2023/07/28 03:36:46;;;;;;;3.07;2.67;;;17.50;99.90;;;17.15;100.00;99744.31;5036825;28;20564;-73
2023/07/28 03:39:19;;;;;;;3.17;2.70;;;17.60;99.90;;;17.15;100.00;99744.31;5036720;28;20199;-73
2023/07/28 03:41:52;;;;;;;3.00;2.50;;;17.50;99.90;;;17.14;100.00;99748.06;5036686;28;20201;-73
2023/07/28 03:44:27;;;;;;;3.10;2.90;;;17.50;99.90;;;17.14;100.00;99748.06;5035777;28;20207;-73
2023/07/28 03:47:00;;;;;;;2.80;2.60;;;17.50;99.90;;;17.15;100.00;99749.72;5037705;28;20198;-73
2023/07/28 03:49:33;;;;;;;4.10;2.80;;;17.50;99.90;;;17.15;100.00;99757.84;5036409;28;20286;-72
2023/07/28 03:52:08;;;;;;;3.00;2.70;;;17.50;99.90;;;17.16;100.00;99751.38;5035424;28;20642;-73
2023/07/28 03:54:41;;;;;;;2.30;2.20;;;17.50;99.90;;;17.15;100.00;99765.97;5034260;28;20236;-73
2023/07/28 03:57:15;;;;;;;3.00;2.60;;;17.60;99.90;;;17.16;100.00;99757.59;5035526;28;20274;-73
2023/07/28 03:59:48;;;;;;;2.80;2.60;;;17.60;99.90;;;17.16;100.00;99762.19;5036276;28;20269;-73
2023/07/28 04:02:21;;;;;;;2.60;2.40;;;17.60;99.90;;;17.15;100.00;99761.38;5036237;28;20195;-73
2023/07/28 04:05:00;;;;;;;3.63;2.60;;;17.50;99.90;;;17.16;100.00;99768.41;5036139;28;20284;-73
2023/07/28 04:07:33;;;;;;;2.83;2.47;;;17.60;99.90;;;17.18;100.00;99765.50;5036170;28;20226;-73
2023/07/28 04:10:09;;;;;;;3.30;2.80;;;17.60;99.90;;;17.17;100.00;99769.25;5036123;28;20270;-73
2023/07/28 04:12:42;;;;;;;2.70;2.50;;;17.60;99.90;;;17.18;100.00;99768.22;5035419;28;20273;-73
2023/07/28 04:15:16;;;;;;;4.03;2.50;;;17.60;99.90;;;17.17;100.00;99763.84;5036126;28;20234;-73
2023/07/28 04:17:49;;;;;;;3.23;2.80;;;17.60;99.90;;;17.16;100.00;99763.00;5035668;28;20198;-73
2023/07/28 04:20:23;;;;;;;3.17;2.63;;;17.60;99.90;;;17.18;100.00;99773.63;5035917;28;20187;-73
2023/07/28 04:22:56;;;;;;;3.77;2.73;;;17.60;99.90;;;17.18;100.00;99777.16;5036131;28;20226;-73
2023/07/28 04:25:30;;;;;;;3.77;2.53;;;17.60;99.90;;;17.20;100.00;99774.22;5035668;28;20990;-73
2023/07/28 04:28:03;;;;;;;2.97;2.67;;;17.60;99.90;;;17.17;100.00;99764.69;5035796;28;20273;-73
2023/07/28 04:30:36;;;;;;;4.10;2.77;;;17.60;99.90;;;17.15;100.00;99772.19;5035416;28;20202;-73
2023/07/28 04:33:09;;;;;;;3.63;2.80;;;17.60;99.90;;;17.15;100.00;99776.78;5035566;28;20250;-73
2023/07/28 04:35:43;;;;;;;3.07;2.77;;;17.50;99.90;;;17.15;100.00;99776.78;5035524;28;20237;-73
2023/07/28 04:38:18;;;;;;;3.20;2.90;;;17.60;99.90;;;17.16;100.00;99773.84;5035611;28;20286;-72
2023/07/28 04:40:52;;;;;;;3.23;2.90;;;17.50;99.90;;;17.15;100.00;99779.47;5035588;28;20280;-71
2023/07/28 04:43:25;;;;;;;2.97;2.77;;;17.50;99.90;;;17.15;100.00;99765.97;5035509;28;20256;-71
2023/07/28 04:45:58;;;;;;;3.43;3.13;;;17.50;99.90;;;17.17;100.00;99782.78;5035120;28;20223;-71
2023/07/28 04:48:32;;;;;;;6.60;3.00;;;17.60;99.90;;;17.18;100.00;99787.16;5035431;28;20294;-71
2023/07/28 04:51:05;;;;;;;3.10;2.73;;;17.60;99.90;;;17.17;100.00;99783.59;5035365;28;20195;-71
2023/07/28 04:53:38;;;;;;;2.97;2.67;;;17.60;99.90;;;17.19;100.00;99784.19;5035379;28;20219;-71
2023/07/28 04:56:12;;;;;;;3.33;3.03;;;17.60;99.90;;;17.20;100.00;99791.28;5034811;28;20325;-71
2023/07/28 04:58:45;;;;;;;4.03;2.77;;;17.60;99.90;;;17.20;100.00;99785.03;5034951;28;20659;-71
2023/07/28 05:01:18;;;;;;;2.70;2.50;;;17.60;99.90;;;17.21;100.00;99794.81;5035659;28;20214;-71
2023/07/28 05:03:51;;;;;;;3.73;2.90;;;17.60;99.90;;;17.22;100.00;99794.59;5035113;28;20195;-71
2023/07/28 05:06:25;;;;;;;3.10;2.80;;;17.60;99.90;;;17.21;100.00;99790.22;5034971;28;20265;-71
2023/07/28 05:08:59;;;;;;;3.20;2.67;;;17.60;99.90;;;17.23;100.00;99798.09;5034697;28;20627;-71
2023/07/28 05:11:32;;;;;;;2.80;2.47;;;17.60;99.90;;;17.22;100.00;99793.75;5034939;28;20191;-71
2023/07/28 05:14:08;;;;;;;3.03;2.73;;;17.60;99.90;;;17.23;100.00;99798.09;5034947;28;20199;-71
2023/07/28 05:16:42;;;;;;;2.70;2.50;;;17.60;99.90;;;17.23;100.00;99800.81;5034828;28;20234;-71
2023/07/28 05:19:16;;;;;;;2.90;2.70;;;17.70;99.90;;;17.23;100.00;99806.22;5034806;28;20270;-71
2023/07/28 05:21:49;;;;;;;2.60;2.40;;;17.70;99.90;;;17.24;100.00;99813.28;5034457;28;20234;-71
2023/07/28 05:24:22;;;;;;;2.63;2.40;;;17.60;99.90;;;17.26;100.00;99810.38;5033704;28;20191;-71
2023/07/28 05:26:56;;;;;;;2.50;2.30;;;17.70;99.90;;;17.26;100.00;99808.47;5034664;28;20285;-71
2023/07/28 05:29:29;;;;;;;2.80;2.40;;;17.70;99.90;;;17.26;100.00;99805.75;5034312;28;20645;-71
2023/07/28 05:32:03;;;;;;;2.10;1.90;;;17.70;99.90;;;17.28;100.00;99819.06;5034561;28;20265;-71
2023/07/28 05:34:36;;;;;;;2.40;2.20;;;17.70;99.90;;;17.28;100.00;99809.09;5034252;28;20240;-71
2023/07/28 05:37:11;;;;;;;3.23;2.20;;;17.70;99.90;;;17.31;100.00;99814.03;5034493;28;20229;-71
2023/07/28 05:39:44;;;;;;;6.63;2.37;;;17.70;99.90;;;17.31;100.00;99818.63;5034464;28;20218;-71
2023/07/28 05:42:18;;;;;;;5.70;2.17;;;17.70;99.90;;;17.31;100.00;99824.03;5034409;28;20206;-71
2023/07/28 05:44:52;;;;;;;2.23;2.03;;;17.70;99.90;;;17.30;100.00;99820.50;5034625;28;20229;-71
2023/07/28 05:47:26;;;;;;;2.10;2.00;;;17.70;99.90;;;17.33;100.00;99822.75;5034232;28;20645;-71
2023/07/28 05:49:59;;;;;;;3.10;2.37;;;17.70;99.90;;;17.33;100.00;99827.34;5034254;28;20196;-71
2023/07/28 05:52:37;;;;;;;3.70;2.17;;;17.70;99.90;;;17.34;100.00;99821.69;5034195;28;20195;-71
2023/07/28 05:55:12;;;;;;;2.50;2.30;;;17.80;99.90;;;17.36;100.00;99826.91;5033960;28;20262;-71
2023/07/28 05:57:46;;;;;;;2.67;2.10;;;17.80;99.90;;;17.39;100.00;99821.03;5034124;28;20266;-71
2023/07/28 06:42:16;;;;;;;4.50;3.70;;;18.10;99.90;;;17.68;100.00;99867.09;5033522;28;20194;-71
2023/07/28 06:44:50;;;;;;;4.27;3.70;;;18.10;99.90;;;17.71;99.96;99869.34;5033362;28;20339;-71
2023/07/28 06:47:23;;;;;;;6.17;4.30;;;18.10;99.90;;;17.72;100.00;99876.44;5033409;28;20285;-71
2023/07/28 06:49:57;;;;;;;4.07;3.67;;;18.20;99.90;;;17.74;100.00;99876.19;5033979;28;20672;-72
2023/07/28 06:52:30;;;;;;;5.53;4.20;;;18.20;99.90;;;17.79;100.00;99880.94;5033365;28;20290;-72
2023/07/28 06:55:03;;;;;;;3.60;3.30;;;18.20;99.90;;;17.81;100.00;99878.84;5032908;28;20776;-72
2023/07/28 06:57:37;;;;;;;3.83;3.50;;;18.20;99.90;;;17.81;100.00;99878.84;5033308;28;20567;-72
2023/07/28 07:00:17;;;;;;;4.70;3.43;;;18.20;99.90;;;17.82;100.00;99891.31;5033340;28;20194;-72
2023/07/28 07:02:51;;;;;;;4.33;3.70;;;18.30;99.90;;;17.83;100.00;99892.97;5033029;28;20640;-72
2023/07/28 07:05:24;;;;;;;3.47;3.27;;;18.20;99.90;;;17.83;100.00;99891.09;5033222;28;20226;-72
2023/07/28 07:07:58;;;;;;;4.60;3.17;;;18.30;99.90;;;17.87;100.00;99894.16;5033250;28;20282;-72
2023/07/28 07:10:31;;;;;;;5.60;3.50;;;18.30;99.90;;;17.91;100.00;99900.78;5033221;28;20187;-72
2023/07/28 07:13:04;;;;;;;4.10;3.17;;;18.30;99.90;;;17.93;100.00;99901.38;5033245;28;20198;-71
2023/07/28 07:19:44;;;;;;;3.43;3.03;;;18.40;99.90;;;17.97;100.00;99906.13;5032412;28;20245;-71
2023/07/28 07:22:18;;;;;;;3.40;3.10;;;18.40;99.90;;;17.98;99.93;99910.44;5032990;28;20561;-72
2023/07/28 07:24:51;;;;;;;4.10;2.90;;;18.40;99.90;;;18.00;100.00;99904.81;5032717;28;20772;-72
2023/07/28 07:27:26;;;;;;;4.63;4.20;;;18.40;99.90;;;18.00;99.87;99913.78;5032687;28;20282;-72
2023/07/28 07:29:59;;;;;;;4.03;3.63;;;18.40;99.90;;;18.02;99.96;99910.81;5033025;28;20190;-72
2023/07/28 07:32:33;;;;;;;3.93;3.07;;;18.40;99.90;;;18.05;100.00;99915.78;5033023;28;20188;-72
2023/07/28 07:35:09;;;;;;;3.00;2.80;;;18.50;99.90;;;18.06;98.71;99920.16;5032553;28;20712;-72
2023/07/28 07:37:45;;;;;;;4.50;3.13;;;18.50;99.90;;;18.09;99.03;99919.69;5032921;28;20290;-72
2023/07/28 07:40:19;;;;;;;5.77;3.40;;;18.50;99.90;;;18.14;98.99;99922.56;5033000;28;20207;-72
2023/07/28 07:42:53;;;;;;;3.80;3.47;;;18.60;99.90;;;18.16;99.50;99920.44;5032830;28;20229;-72
2023/07/28 07:45:26;;;;;;;3.50;3.20;;;18.60;99.90;;;18.18;98.26;99921.03;5032843;28;20280;-72
2023/07/28 07:48:00;;;;;;;3.40;3.10;;;18.60;99.90;;;18.21;98.33;99917.88;5035512;28;20245;-72
2023/07/28 07:50:34;;;;;;;3.67;3.37;;;18.60;99.90;;;18.26;98.50;99926.13;5036541;28;20358;-72
2023/07/28 07:53:07;;;;;;;4.00;3.70;;;18.70;99.90;;;18.30;98.78;99931.91;5036476;28;20281;-72
2023/07/28 07:55:41;;;;;;;4.07;3.70;;;18.70;99.90;;;18.32;98.44;99925.22;5036262;28;20277;-72
2023/07/28 07:58:15;;;;;;;3.80;3.50;;;18.80;99.90;;;18.34;97.54;99924.97;5036376;28;20191;-72
2023/07/28 08:00:48;;;;;;;4.80;3.33;;;18.80;99.90;;;18.39;96.52;99931.34;5036342;28;20245;-72
2023/07/28 08:03:23;;;;;;;4.93;3.10;;;18.80;99.90;;;18.45;97.15;99935.03;5035966;28;20195;-72
2023/07/28 08:05:58;;;;;;;4.40;3.63;;;18.90;99.90;;;18.49;97.14;99931.63;5035828;28;20257;-72
2023/07/28 08:08:32;;;;;;;3.60;3.30;;;19.00;99.90;;;18.59;95.78;99931.13;5035987;28;20708;-72
2023/07/28 08:11:05;;;;;;;5.10;4.00;;;19.00;99.90;;;18.60;94.82;99936.28;5036164;28;20274;-72
2023/07/28 08:13:38;;;;;;;4.80;4.37;;;19.10;99.90;;;18.64;94.44;99948.31;5036110;28;20191;-72
2023/07/28 08:16:12;;;;;;;6.03;4.10;;;19.10;99.90;;;18.58;94.91;99941.13;5035921;28;20321;-72
2023/07/28 08:18:45;;;;;;;6.73;4.67;;;19.00;99.90;;;18.53;95.46;99949.09;5036021;28;20187;-72
2023/07/28 08:21:19;;;;;;;5.63;5.00;;;19.00;99.90;;;18.54;98.45;99950.78;5035962;28;20294;-72
2023/07/28 08:23:52;;;;;;;6.40;5.10;;;18.90;99.90;;;18.53;99.29;99957.25;5035916;28;20187;-72
2023/07/28 08:26:26;;;;;;;5.77;5.27;;;18.90;99.90;;;18.47;99.09;99960.84;5035815;28;20310;-72
2023/07/28 08:28:59;;;;;;;5.93;5.30;;;18.90;99.90;;;18.45;98.96;99954.84;5035816;28;20191;-72
2023/07/28 08:31:32;;;;;;;8.77;5.70;;;18.90;99.90;;;18.48;98.97;99961.69;5035804;28;20298;-72
2023/07/28 08:34:07;;;;;;;6.27;5.37;;;18.90;99.90;;;18.51;98.95;99964.78;5035722;28;20192;-72
2023/07/28 08:36:41;;;;;;;5.67;5.17;;;18.90;99.90;;;18.55;99.40;99962.44;5035593;28;20257;-72
2023/07/28 08:39:15;;;;;;;5.50;4.97;;;19.00;99.90;;;18.57;99.55;99963.84;5035260;28;20227;-72
2023/07/28 08:41:48;;;;;;;5.87;4.83;;;19.00;99.90;;;18.63;98.00;99968.34;5035579;28;20199;-72
2023/07/28 08:44:22;;;;;;;4.73;4.33;;;19.00;99.90;;;18.73;98.17;99968.63;5035270;28;20306;-72
2023/07/28 08:46:55;;;;;;;4.63;4.20;;;19.20;99.90;;;18.76;94.80;99985.50;5035173;28;20245;-72
2023/07/28 08:49:31;;;;;;;5.30;4.13;;;19.20;99.90;;;18.85;94.75;99978.66;5035435;28;20215;-72
2023/07/28 08:52:06;;;;;;;4.43;4.03;;;19.30;99.90;;;18.92;94.34;99979.41;5035086;28;20747;-72
2023/07/28 08:54:39;;;;;;;4.80;4.50;;;19.40;99.90;;;19.00;93.84;99981.78;5035308;28;20658;-72
2023/07/28 08:57:14;;;;;;;4.00;3.70;;;19.50;99.90;;;19.13;94.14;99978.84;5035175;28;20306;-72
2023/07/28 08:59:48;;;;;;;5.37;3.80;;;19.60;99.90;;;19.24;92.68;99978.88;5035154;28;20632;-72
2023/07/28 09:02:23;;;;;;;3.33;3.13;;;19.70;99.90;;;19.43;89.49;99970.63;5035239;28;20281;-72
2023/07/28 09:04:56;;;;;;;4.07;3.67;;;19.80;99.90;;;19.42;89.18;99975.22;5034783;28;20223;-72
2023/07/28 09:07:37;;;;;;;3.10;2.90;;;19.90;99.90;;;19.42;88.94;99983.38;5035106;28;20253;-72
2023/07/28 09:10:12;;;;;;;3.97;3.40;;;19.90;99.90;;;19.47;86.74;99982.66;5035118;28;20195;-72
2023/07/28 09:12:53;;;;;;;3.63;3.30;;;19.90;99.90;;;19.51;86.53;99987.41;5034987;28;20226;-72
2023/07/28 09:15:26;;;;;;;4.53;3.60;;;20.00;99.90;;;19.51;87.00;99990.13;5034871;28;20314;-72
2023/07/28 09:18:03;;;;;;;3.10;2.80;;;20.00;99.90;;;19.60;85.35;99993.28;5034855;28;20217;-72
2023/07/28 09:20:43;;;;;;;4.40;2.90;;;20.00;99.90;;;19.64;84.06;99984.44;5034776;28;20558;-72
2023/07/28 09:23:28;;;;;;;3.00;2.80;;;20.10;99.90;;;19.81;82.71;99989.13;5034769;28;20244;-72
2023/07/28 09:26:07;;;;;;;3.90;3.00;;;20.20;99.90;;;19.82;82.49;99996.22;5034701;28;20333;-72
2023/07/28 09:28:45;;;;;;;4.83;2.70;;;20.30;99.90;;;19.84;83.72;99996.81;5034689;28;20226;-72
2023/07/28 09:31:29;;;;;;;4.23;2.90;;;20.20;99.90;;;19.94;83.48;99994.31;5034672;28;20186;-72
2023/07/28 09:34:02;;;;;;;5.40;3.30;;;20.30;99.90;;;20.02;84.33;99996.66;5034308;28;20640;-72
2023/07/28 09:36:38;;;;;;;5.70;3.07;;;20.40;99.90;;;20.06;83.53;99987.81;5034478;28;20233;-72
2023/07/28 09:39:12;;;;;;;4.70;3.00;;;20.50;99.90;;;20.13;83.78;99995.81;5034565;28;20244;-72
2023/07/28 09:41:48;;;;;;;4.33;2.50;;;20.50;99.90;;;20.33;83.60;99988.09;5034498;28;20238;-71
2023/07/28 09:44:21;;;;;;;3.60;3.13;;;20.70;99.90;;;20.49;81.42;99983.78;5033961;28;20242;-72
2023/07/28 09:46:58;;;;;;;4.07;2.97;;;20.90;99.90;;;20.56;84.14;99985.28;5034094;28;20592;-72
2023/07/28 09:49:40;;;;;;;3.27;2.97;;;21.00;99.90;;;20.70;79.70;99989.34;5034337;28;20193;-72
2023/07/28 09:52:17;;;;;;;4.33;2.90;;;21.10;99.90;;;20.70;80.87;99989.34;5034301;28;20282;-72
2023/07/28 09:54:58;;;;;;;4.70;3.07;;;21.20;99.90;;;20.75;80.25;99997.59;5034151;28;20315;-72
2023/07/28 09:57:37;;;;;;;3.90;2.53;;;21.20;99.90;;;20.89;78.34;99987.22;5033802;28;20661;-72
2023/07/28 10:00:16;;;;;;;5.50;2.90;;;21.30;99.90;;;21.03;77.16;99993.16;5034162;28;20226;-72
2023/07/28 10:02:50;;;;;;;4.03;2.93;;;21.40;99.90;;;20.92;78.78;99996.81;5034070;28;20193;-72
2023/07/28 10:05:24;;;;;;;5.37;2.73;;;21.40;99.90;;;20.95;78.37;100001.75;5033976;28;20225;-72
2023/07/28 10:07:59;;;;;;;2.60;2.40;;;21.30;99.90;;;20.96;80.03;99997.97;5034002;28;20187;-72
2023/07/28 10:10:33;;;;;;;3.87;2.60;;;21.40;99.90;;;21.12;78.99;99994.47;5033527;28;20221;-72
2023/07/28 10:13:07;;;;;;;2.97;2.70;;;21.60;99.90;;;21.08;77.13;99996.81;5033960;28;20226;-72
2023/07/28 10:15:42;;;;;;;3.37;3.00;;;21.50;99.90;;;21.04;75.35;99997.56;5033792;28;20265;-69
2023/07/28 10:18:20;;;;;;;3.27;3.07;;;21.40;99.90;;;21.02;75.76;100005.16;5033725;28;20217;-67
2023/07/28 10:20:53;;;;;;;3.87;3.00;;;21.50;99.90;;;20.99;75.96;100003.75;5033801;28;20276;-75
2023/07/28 10:23:27;;;;;;;3.30;3.00;;;21.40;99.90;;;20.95;77.94;100007.19;5033704;28;20199;-76
2023/07/28 10:26:05;;;;;;;3.13;2.83;;;21.30;99.90;;;20.95;77.77;100007.19;5033939;28;20269;-76
2023/07/28 10:28:41;;;;;;;4.43;3.00;;;21.30;99.90;;;20.96;78.10;100011.59;5033315;28;20194;-76
2023/07/28 10:31:30;;;;;;;5.33;3.20;;;21.40;99.90;;;20.99;78.04;100016.53;5033632;28;20183;-76
2023/07/28 10:34:04;;;;;;;3.37;2.87;;;21.40;99.90;;;21.03;75.30;100021.22;5033600;28;20187;-76
2023/07/28 10:36:40;;;;;;;3.20;2.90;;;21.40;99.90;;;21.05;75.72;100012.81;5033135;28;20800;-75
2023/07/28 10:39:21;;;;;;;3.07;2.80;;;21.50;99.90;;;21.21;76.70;100020.19;5033784;28;20193;-75
2023/07/28 10:42:10;;;;;;;2.70;2.50;;;21.60;99.90;;;21.46;74.54;100020.63;5033208;28;20660;-75
2023/07/28 10:44:43;;;;;;;3.00;2.70;;;21.80;99.90;;;21.43;74.98;100015.66;5033392;28;20332;-75
2023/07/28 10:47:17;;;;;;;2.60;2.40;;;21.90;99.90;;;21.54;72.38;100017.44;5033456;28;20241;-76
2023/07/28 10:49:52;;;;;;;3.80;2.77;;;21.90;99.90;;;21.55;72.73;100015.56;5033428;28;20187;-76
2023/07/28 10:52:29;;;;;;;2.73;2.43;;;22.00;99.90;;;21.55;74.61;100021.84;5033443;28;20190;-75
2023/07/28 10:55:03;;;;;;;2.83;2.57;;;21.90;99.90;;;21.62;74.08;100025.22;5033211;28;20329;-76
2023/07/28 10:57:38;;;;;;;2.97;2.30;;;22.00;99.90;;;21.60;73.60;100019.19;5033331;28;20269;-76
2023/07/28 11:00:16;;;;;;;3.30;2.57;;;22.00;99.90;;;21.52;72.53;100022.34;5033039;28;20281;-76
2023/07/28 11:02:51;;;;;;;4.70;2.70;;;21.90;99.90;;;21.46;74.67;100014.34;5033203;28;20195;-76
2023/07/28 11:05:30;;;;;;;2.77;2.53;;;21.80;99.90;;;21.41;74.92;100022.41;5033221;28;20283;-76
2023/07/28 11:08:07;;;;;;;2.77;2.57;;;21.80;99.90;;;21.49;73.20;100022.00;5032925;28;20282;-76
2023/07/28 11:10:41;;;;;;;2.50;2.30;;;21.80;99.90;;;21.41;74.17;100019.69;5033229;28;20221;-76
2023/07/28 11:13:16;;;;;;;4.83;3.30;;;21.70;99.90;;;21.45;72.99;100023.56;5032866;28;20706;-76
2023/07/28 11:16:11;;;;;;;3.77;2.47;;;21.80;99.90;;;21.48;71.10;100018.47;5033183;28;20230;-76
2023/07/28 11:18:46;;;;;;;2.67;2.47;;;21.90;99.90;;;21.54;71.79;100020.19;5033074;28;20206;-76
2023/07/28 11:21:25;;;;;;;2.80;2.57;;;21.90;99.90;;;21.57;70.77;100027.88;5033191;28;20197;-75
2023/07/28 11:23:59;;;;;;;2.37;2.17;;;21.90;99.90;;;21.61;71.55;100023.56;5037314;28;20195;-76
2023/07/28 11:26:33;;;;;;;3.33;2.50;;;22.00;99.90;;;21.70;70.22;100032.16;5036934;28;20289;-75
2023/07/28 11:29:08;;;;;;;4.13;2.70;;;22.00;99.90;;;21.80;69.39;100028.75;5036940;28;20291;-76
2023/07/28 11:31:44;;;;;;;2.33;2.13;;;22.20;99.90;;;21.90;70.58;100023.47;5037105;28;20201;-76